createdAt,value
2023-04-18T00:00:21.611Z,102981.16
2023-04-18T00:02:48.351Z,102985.44
2023-04-18T00:05:18.212Z,102986.22
2023-04-18T00:07:44.981Z,102979.88
2023-04-18T00:10:12.061Z,102989.34
2023-04-18T00:12:39.233Z,102972.28
2023-04-18T00:15:09.022Z,102981.13
2023-04-18T00:17:38.554Z,102984.47
2023-04-18T00:20:07.247Z,102962.00
2023-04-18T00:22:34.000Z,102982.66
2023-04-18T00:25:00.580Z,102980.47
2023-04-18T00:27:29.725Z,102978.09
2023-04-18T00:29:59.012Z,102985.44
2023-04-18T00:32:28.480Z,102962.41
2023-04-18T00:34:55.098Z,102972.50
2023-04-18T00:37:21.726Z,102964.34
2023-04-18T00:39:53.852Z,102954.41
2023-04-18T00:42:22.009Z,102969.28
2023-04-18T00:44:51.170Z,102947.72
2023-04-18T00:47:17.884Z,102950.31
2023-04-18T00:49:48.633Z,102950.53
2023-04-18T00:52:16.798Z,102960.00
2023-04-18T00:54:44.752Z,102940.38
2023-04-18T00:57:12.444Z,102895.78
2023-04-18T00:59:39.152Z,102956.38
2023-04-18T01:02:05.979Z,102949.28
2023-04-18T01:04:35.883Z,102947.22
2023-04-18T01:07:03.455Z,102944.63
2023-04-18T01:09:30.332Z,102950.06
2023-04-18T01:11:57.043Z,102941.81
2023-04-18T01:14:25.891Z,102930.16
2023-04-18T01:16:55.475Z,102946.44
2023-04-18T01:19:23.244Z,102938.41
2023-04-18T01:21:50.093Z,102913.59
2023-04-18T01:24:17.791Z,102936.63
2023-04-18T01:26:47.705Z,102885.72
2023-04-18T01:29:14.917Z,102941.00
2023-04-18T01:31:42.151Z,102922.53
2023-04-18T01:34:09.176Z,102936.63
2023-04-18T01:36:36.844Z,102937.13
2023-04-18T01:39:03.867Z,102934.94
2023-04-18T01:41:33.179Z,102945.72
2023-04-18T01:44:02.642Z,102914.63
2023-04-18T01:46:29.682Z,102949.31
2023-04-18T01:48:59.818Z,102944.00
2023-04-18T01:51:28.023Z,102932.75
2023-04-18T01:53:54.608Z,102938.66
2023-04-18T01:56:23.390Z,102923.69
2023-04-18T01:58:52.293Z,102938.19
2023-04-18T02:01:18.920Z,102936.38
2023-04-18T02:03:50.751Z,102924.88
2023-04-18T02:06:17.532Z,102930.16
2023-04-18T02:08:44.141Z,102914.28
2023-04-18T02:11:15.303Z,102919.69
2023-04-18T02:13:41.909Z,102929.94
2023-04-18T02:16:12.958Z,102917.91
2023-04-18T02:18:40.247Z,102930.72
2023-04-18T02:21:07.252Z,102899.88
2023-04-18T02:23:33.857Z,102913.91
2023-04-18T02:26:00.493Z,102912.09
2023-04-18T02:28:27.086Z,102907.44
2023-04-18T02:30:53.668Z,102916.47
2023-04-18T02:33:22.677Z,102926.06
2023-04-18T02:35:51.529Z,102917.28
2023-04-18T02:38:18.254Z,102873.34
2023-04-18T02:40:44.863Z,102911.97
2023-04-18T02:43:13.759Z,102896.88
2023-04-18T02:45:40.630Z,102854.75
2023-04-18T02:48:07.369Z,102897.00
2023-04-18T02:50:35.527Z,102898.66
2023-04-18T02:53:02.212Z,102901.75
2023-04-18T02:55:32.153Z,102887.28
2023-04-18T02:57:58.707Z,102897.34
2023-04-18T03:00:25.356Z,102902.53
2023-04-18T03:02:53.300Z,102897.00
2023-04-18T03:05:20.351Z,102906.00
2023-04-18T03:07:47.012Z,102891.69
2023-04-18T03:10:16.661Z,102886.63
2023-04-18T03:12:43.380Z,102889.22
2023-04-18T03:15:10.450Z,102896.19
2023-04-18T03:17:37.106Z,102897.88
2023-04-18T03:20:06.709Z,102883.06
2023-04-18T03:22:33.310Z,102904.38
2023-04-18T03:25:00.831Z,102905.81
2023-04-18T03:27:27.493Z,102912.41
2023-04-18T03:29:54.099Z,102901.03
2023-04-18T03:32:21.112Z,102897.03
2023-04-18T03:34:48.062Z,102904.16
2023-04-18T03:37:17.001Z,102901.56
2023-04-18T03:39:45.926Z,102884.28
2023-04-18T03:42:12.489Z,102909.09
2023-04-18T03:44:41.422Z,102895.66
2023-04-18T03:47:10.353Z,102893.69
2023-04-18T03:49:37.101Z,102886.22
2023-04-18T03:52:05.921Z,102883.53
2023-04-18T03:54:32.665Z,102897.09
2023-04-18T03:56:59.690Z,102906.00
2023-04-18T03:59:26.646Z,102888.81
2023-04-18T04:01:53.476Z,102906.78
2023-04-18T04:04:22.416Z,102906.63
2023-04-18T04:06:51.361Z,102897.09
2023-04-18T04:09:17.982Z,102892.94
2023-04-18T04:11:46.202Z,102899.81
2023-04-18T04:14:13.281Z,102902.41
2023-04-18T04:16:40.691Z,102906.00
2023-04-18T04:19:07.280Z,102899.81
2023-04-18T04:21:33.887Z,102899.00
2023-04-18T04:24:01.684Z,102894.63
2023-04-18T04:26:30.876Z,102882.31
2023-04-18T04:28:57.792Z,102887.75
2023-04-18T04:31:26.785Z,102883.34
2023-04-18T04:33:53.448Z,102884.50
2023-04-18T04:36:21.392Z,102864.50
2023-04-18T04:38:50.414Z,102886.34
2023-04-18T04:41:17.281Z,102883.63
2023-04-18T04:43:44.025Z,102871.75
2023-04-18T04:46:13.669Z,102841.13
2023-04-18T04:48:40.710Z,102881.16
2023-04-18T04:51:09.676Z,102881.16
2023-04-18T04:53:36.316Z,102879.34
2023-04-18T04:56:06.098Z,102882.84
2023-04-18T04:58:34.064Z,102877.41
2023-04-18T05:01:03.128Z,102861.16
2023-04-18T05:03:34.878Z,102873.94
2023-04-18T05:06:06.411Z,102862.44
2023-04-18T05:08:33.176Z,102852.72
2023-04-18T05:11:02.150Z,102864.00
2023-04-18T05:13:31.009Z,102864.34
2023-04-18T05:15:59.338Z,102876.25
2023-04-18T05:18:25.952Z,102832.22
2023-04-18T05:20:52.686Z,102862.91
2023-04-18T05:23:21.555Z,102868.06
2023-04-18T05:25:50.734Z,102878.13
2023-04-18T05:28:17.344Z,102880.81
2023-04-18T05:30:45.448Z,102879.28
2023-04-18T05:33:12.082Z,102876.16
2023-04-18T05:35:38.869Z,102882.63
2023-04-18T05:38:08.487Z,102862.97
2023-04-18T05:40:38.260Z,102855.44
2023-04-18T05:43:04.833Z,102880.06
2023-04-18T05:45:31.452Z,102873.72
2023-04-18T05:47:58.091Z,102849.13
2023-04-18T05:50:24.917Z,102866.56
2023-04-18T05:52:52.090Z,102860.16
2023-04-18T05:55:18.683Z,102869.00
2023-04-18T05:57:47.525Z,102855.91
2023-04-18T06:00:14.651Z,102850.06
2023-04-18T06:02:41.665Z,102823.69
2023-04-18T06:05:09.420Z,102859.94
2023-04-18T06:07:39.062Z,102824.03
2023-04-18T06:10:11.235Z,102854.97
2023-04-18T06:12:37.861Z,102858.69
2023-04-18T06:15:07.540Z,102838.53
2023-04-18T06:17:35.020Z,102858.88
2023-04-18T06:20:02.168Z,102872.19
2023-04-18T06:22:28.801Z,102865.66
2023-04-18T06:24:57.947Z,102863.31
2023-04-18T06:27:31.585Z,102857.69
2023-04-18T06:29:59.034Z,102837.59
2023-04-18T06:32:30.563Z,102859.53
2023-04-18T06:34:57.221Z,102843.97
2023-04-18T06:37:28.405Z,102843.28
2023-04-18T06:39:55.185Z,102857.81
2023-04-18T06:42:22.569Z,102858.97
2023-04-18T06:44:49.633Z,102839.03
2023-04-18T06:47:16.549Z,102854.00
2023-04-18T06:49:43.190Z,102856.38
2023-04-18T06:52:09.902Z,102845.91
2023-04-18T06:54:38.897Z,102839.91
2023-04-18T06:57:06.271Z,102843.63
2023-04-18T06:59:35.840Z,102814.38
2023-04-18T07:02:02.435Z,102846.34
2023-04-18T07:04:31.698Z,102830.22
2023-04-18T07:07:01.576Z,102834.47
2023-04-18T07:09:28.307Z,102835.59
2023-04-18T07:11:54.987Z,102820.84
2023-04-18T07:14:23.591Z,102819.78
2023-04-18T07:16:51.280Z,102779.19
2023-04-18T07:19:22.780Z,102834.63
2023-04-18T07:21:51.252Z,102849.63
2023-04-18T07:24:17.878Z,102850.22
2023-04-18T07:26:44.636Z,102843.28
2023-04-18T07:29:11.269Z,102850.19
2023-04-18T07:31:40.324Z,102858.84
2023-04-18T07:34:06.984Z,102859.38
2023-04-18T07:36:33.585Z,102860.66
2023-04-18T07:39:02.228Z,102850.09
2023-04-18T07:41:28.889Z,102848.31
2023-04-18T07:43:55.577Z,102833.75
2023-04-18T07:46:22.234Z,102855.31
2023-04-18T07:48:49.032Z,102823.28
2023-04-18T07:51:15.728Z,102845.19
2023-04-18T07:53:47.016Z,102841.00
2023-04-18T07:56:14.570Z,102843.78
2023-04-18T07:58:41.422Z,102829.47
2023-04-18T08:01:13.530Z,102842.25
2023-04-18T08:03:42.847Z,102835.00
2023-04-18T08:06:10.015Z,102851.22
2023-04-18T08:08:41.237Z,102838.81
2023-04-18T08:11:10.946Z,102839.47
2023-04-18T08:13:37.589Z,102843.59
2023-04-18T08:16:04.470Z,102857.53
2023-04-18T08:18:31.131Z,102847.25
2023-04-18T08:21:00.209Z,102846.81
2023-04-18T08:23:26.915Z,102819.75
2023-04-18T08:25:53.642Z,102818.38
2023-04-18T08:28:22.637Z,102833.34
2023-04-18T08:30:52.182Z,102804.56
2023-04-18T08:33:21.612Z,102823.13
2023-04-18T08:35:48.409Z,102802.78
2023-04-18T08:38:17.417Z,102798.88
2023-04-18T08:40:47.537Z,102826.78
2023-04-18T08:43:15.708Z,102841.06
2023-04-18T08:45:45.897Z,102846.28
2023-04-18T08:48:16.818Z,102802.03
2023-04-18T08:50:47.891Z,102800.22
2023-04-18T08:53:19.089Z,102802.91
2023-04-18T08:55:47.777Z,102812.63
2023-04-18T08:58:23.227Z,102812.22
2023-04-18T09:00:51.758Z,102813.06
2023-04-18T09:03:37.843Z,102804.94
2023-04-18T09:06:08.821Z,102763.41
2023-04-18T09:08:38.336Z,102784.59
2023-04-18T09:11:29.281Z,102796.88
2023-04-18T09:13:58.882Z,102795.09
2023-04-18T09:16:31.411Z,102790.16
2023-04-18T09:19:18.163Z,102781.13
2023-04-18T09:21:48.934Z,102781.78
2023-04-18T09:24:21.246Z,102785.47
2023-04-18T09:26:49.888Z,102769.69
2023-04-18T09:29:18.499Z,102770.00
2023-04-18T09:31:57.715Z,102786.50
2023-04-18T09:34:25.209Z,102787.41
2023-04-18T09:37:08.349Z,102775.34
2023-04-18T09:39:39.232Z,102762.78
2023-04-18T09:42:10.573Z,102761.50
2023-04-18T09:44:38.504Z,102753.78
2023-04-18T09:47:08.119Z,102761.03
2023-04-18T09:49:37.050Z,102777.84
2023-04-18T09:52:09.674Z,102756.25
2023-04-18T09:54:39.368Z,102781.56
2023-04-18T09:57:12.140Z,102771.75
2023-04-18T09:59:51.409Z,102754.59
2023-04-18T10:02:23.122Z,102767.78
2023-04-18T10:04:51.923Z,102772.22
2023-04-18T10:07:21.439Z,102759.50
2023-04-18T10:09:49.390Z,102760.47
2023-04-18T10:12:17.590Z,102746.53
2023-04-18T10:14:44.644Z,102735.09
2023-04-18T10:17:11.957Z,102746.88
2023-04-18T10:19:42.132Z,102741.69
2023-04-18T10:22:08.855Z,102747.13
2023-04-18T10:24:53.278Z,102740.28
2023-04-18T10:27:49.028Z,102740.50
2023-04-18T10:30:18.921Z,102733.38
2023-04-18T10:32:46.634Z,102726.84
2023-04-18T10:35:13.537Z,102688.03
2023-04-18T10:37:50.977Z,102727.81
2023-04-18T10:40:31.523Z,102724.66
2023-04-18T10:42:58.376Z,102706.47
2023-04-18T10:45:27.074Z,102728.88
2023-04-18T10:48:26.086Z,102722.00
2023-04-18T10:51:18.824Z,102709.53
2023-04-18T10:53:53.100Z,102712.22
2023-04-18T10:56:20.117Z,102712.53
2023-04-18T10:58:51.246Z,102703.03
2023-04-18T11:01:33.367Z,102708.75
2023-04-18T11:04:10.934Z,102712.38
2023-04-18T11:06:51.756Z,102693.34
2023-04-18T11:09:18.752Z,102701.41
2023-04-18T11:11:45.544Z,102702.44
2023-04-18T11:14:14.969Z,102700.88
2023-04-18T11:16:41.893Z,102695.84
2023-04-18T11:19:25.041Z,102695.28
2023-04-18T11:21:51.815Z,102701.13
2023-04-18T11:24:23.254Z,102687.94
2023-04-18T11:26:49.969Z,102708.41
2023-04-18T11:29:18.156Z,102702.97
2023-04-18T11:31:51.703Z,102703.31
2023-04-18T11:34:18.370Z,102699.88
2023-04-18T11:36:49.536Z,102704.69
2023-04-18T11:39:16.283Z,102684.56
2023-04-18T11:41:48.327Z,102719.06
2023-04-18T11:44:15.669Z,102688.09
2023-04-18T11:46:42.804Z,102692.31
2023-04-18T11:49:24.954Z,102710.38
2023-04-18T11:51:51.723Z,102700.03
2023-04-18T11:54:44.218Z,102707.31
2023-04-18T11:57:21.425Z,102696.00
2023-04-18T11:59:57.944Z,102696.88
2023-04-18T12:02:42.805Z,102711.56
2023-04-18T12:05:14.816Z,102693.69
2023-04-18T12:07:44.507Z,102696.72
2023-04-18T12:10:20.603Z,102705.91
2023-04-18T12:12:51.530Z,102697.09
2023-04-18T12:15:27.292Z,102668.16
2023-04-18T12:18:04.415Z,102686.59
2023-04-18T12:20:56.768Z,102644.72
2023-04-18T12:23:40.518Z,102681.88
2023-04-18T12:26:14.485Z,102664.34
2023-04-18T12:28:45.982Z,102675.78
2023-04-18T12:31:12.911Z,102658.94
2023-04-18T12:33:39.725Z,102675.03
2023-04-18T12:36:08.466Z,102673.16
2023-04-18T12:38:37.605Z,102669.66
2023-04-18T12:41:04.312Z,102660.75
2023-04-18T12:43:35.851Z,102662.56
2023-04-18T12:46:03.882Z,102653.59
2023-04-18T12:48:30.840Z,102665.22
2023-04-18T12:50:57.451Z,102636.84
2023-04-18T12:53:24.078Z,102639.22
2023-04-18T12:55:51.005Z,102628.19
2023-04-18T12:58:20.891Z,102642.44
2023-04-18T13:00:49.903Z,102650.09
2023-04-18T13:03:16.869Z,102648.13
2023-04-18T13:05:43.720Z,102648.88
2023-04-18T13:08:17.162Z,102653.88
2023-04-18T13:10:47.974Z,102646.34
2023-04-18T13:13:14.829Z,102658.00
2023-04-18T13:15:43.689Z,102667.44
2023-04-18T13:18:10.378Z,102655.75
2023-04-18T13:20:37.194Z,102641.13
2023-04-18T13:23:03.984Z,102634.63
2023-04-18T13:25:30.988Z,102660.22
2023-04-18T13:27:58.606Z,102650.16
2023-04-18T13:30:25.668Z,102659.06
2023-04-18T13:32:52.469Z,102665.56
2023-04-18T13:35:19.299Z,102646.69
2023-04-18T13:37:46.390Z,102635.72
2023-04-18T13:40:13.607Z,102647.59
2023-04-18T13:42:40.487Z,102649.41
2023-04-18T13:45:07.794Z,102649.56
2023-04-18T13:47:34.910Z,102646.09
2023-04-18T13:50:01.762Z,102636.84
2023-04-18T13:52:28.538Z,102653.41
2023-04-18T13:54:55.236Z,102649.94
2023-04-18T13:57:24.212Z,102637.66
2023-04-18T13:59:50.893Z,102640.53
2023-04-18T14:02:17.670Z,102635.56
2023-04-18T14:04:44.674Z,102622.25
2023-04-18T14:07:11.535Z,102610.91
2023-04-18T14:09:38.211Z,102629.31
2023-04-18T14:12:05.261Z,102631.84
2023-04-18T14:14:31.966Z,102604.50
2023-04-18T14:16:58.713Z,102617.91
2023-04-18T14:19:27.778Z,102629.63
2023-04-18T14:21:56.739Z,102632.75
2023-04-18T14:24:23.323Z,102641.34
2023-04-18T14:26:52.490Z,102634.69
2023-04-18T14:29:19.142Z,102622.53
2023-04-18T14:31:46.221Z,102630.31
2023-04-18T14:34:13.229Z,102626.50
2023-04-18T14:36:39.918Z,102626.31
2023-04-18T14:39:06.947Z,102644.31
2023-04-18T14:41:36.327Z,102640.97
2023-04-18T14:44:04.194Z,102607.88
2023-04-18T14:46:33.441Z,102628.28
2023-04-18T14:49:02.594Z,102605.59
2023-04-18T14:51:32.305Z,102630.56
2023-04-18T14:53:58.942Z,102635.69
2023-04-18T14:56:27.944Z,102640.34
2023-04-18T14:58:54.661Z,102628.13
2023-04-18T15:01:21.462Z,102651.06
2023-04-18T15:03:51.490Z,102643.13
2023-04-18T15:06:18.409Z,102644.59
2023-04-18T15:08:44.996Z,102648.72
2023-04-18T15:11:11.654Z,102616.31
2023-04-18T15:13:43.042Z,102654.31
2023-04-18T15:16:09.963Z,102625.34
2023-04-18T15:18:38.946Z,102638.00
2023-04-18T15:21:05.702Z,102645.78
2023-04-18T15:23:32.534Z,102646.69
2023-04-18T15:26:01.566Z,102628.34
2023-04-18T15:28:28.260Z,102626.88
2023-04-18T15:30:54.964Z,102646.13
2023-04-18T15:33:21.856Z,102640.72
2023-04-18T15:35:48.559Z,102623.66
2023-04-18T15:38:16.006Z,102613.06
2023-04-18T15:40:43.636Z,102633.03
2023-04-18T15:43:10.381Z,102629.13
2023-04-18T15:45:40.183Z,102585.19
2023-04-18T15:48:07.125Z,102627.16
2023-04-18T15:50:33.953Z,102630.56
2023-04-18T15:53:00.755Z,102638.28
2023-04-18T15:55:32.125Z,102619.88
2023-04-18T15:58:01.742Z,102587.53
2023-04-18T16:00:28.490Z,102638.81
2023-04-18T16:02:55.195Z,102619.88
2023-04-18T16:05:21.998Z,102620.53
2023-04-18T16:07:52.285Z,102595.06
2023-04-18T16:10:19.068Z,102598.31
2023-04-18T16:12:46.111Z,102612.69
2023-04-18T16:15:13.214Z,102592.31
2023-04-18T16:17:39.985Z,102598.84
2023-04-18T16:20:08.632Z,102621.53
2023-04-18T16:22:35.424Z,102579.38
2023-04-18T16:25:02.328Z,102612.56
2023-04-18T16:27:29.079Z,102615.25
2023-04-18T16:29:58.222Z,102604.53
2023-04-18T16:32:25.187Z,102604.44
2023-04-18T16:34:54.153Z,102609.75
2023-04-18T16:37:21.122Z,102594.31
2023-04-18T16:39:47.951Z,102587.69
2023-04-18T16:42:15.845Z,102605.69
2023-04-18T16:44:45.453Z,102597.34
2023-04-18T16:47:12.254Z,102603.28
2023-04-18T16:49:43.516Z,102582.31
2023-04-18T16:52:10.130Z,102621.31
2023-04-18T16:54:36.887Z,102603.63
2023-04-18T16:57:05.818Z,102604.34
2023-04-18T16:59:34.806Z,102609.34
2023-04-18T17:02:01.564Z,102594.75
2023-04-18T17:04:31.289Z,102615.34
2023-04-18T17:06:58.274Z,102596.63
2023-04-18T17:09:24.908Z,102616.44
2023-04-18T17:11:51.564Z,102579.56
2023-04-18T17:14:20.862Z,102599.78
2023-04-18T17:16:47.981Z,102603.56
2023-04-18T17:19:20.018Z,102609.38
2023-04-18T17:21:49.166Z,102605.19
2023-04-18T17:24:18.700Z,102624.47
2023-04-18T17:26:45.372Z,102604.25
2023-04-18T17:29:12.162Z,102609.56
2023-04-18T17:31:39.081Z,102593.03
2023-04-18T17:34:08.280Z,102592.16
2023-04-18T17:36:35.003Z,102583.94
2023-04-18T17:39:06.494Z,102567.53
2023-04-18T17:41:40.427Z,102596.84
2023-04-18T17:44:10.549Z,102585.44
2023-04-18T17:46:40.236Z,102564.59
2023-04-18T17:49:07.061Z,102582.44
2023-04-18T17:51:36.217Z,102570.38
2023-04-18T17:54:03.056Z,102582.50
2023-04-18T17:56:31.416Z,102565.44
2023-04-18T17:58:58.058Z,102561.66
2023-04-18T18:01:26.264Z,102586.94
2023-04-18T18:03:55.770Z,102583.56
2023-04-18T18:06:24.825Z,102562.59
2023-04-18T18:08:51.459Z,102587.56
2023-04-18T18:11:21.539Z,102548.13
2023-04-18T18:13:54.477Z,102578.09
2023-04-18T18:16:24.584Z,102575.31
2023-04-18T18:18:53.494Z,102584.91
2023-04-18T18:21:20.102Z,102579.53
2023-04-18T18:23:46.697Z,102579.44
2023-04-18T18:26:13.388Z,102582.53
2023-04-18T18:28:40.084Z,102590.44
2023-04-18T18:31:09.391Z,102592.06
2023-04-18T18:33:36.165Z,102577.38
2023-04-18T18:36:02.800Z,102581.69
2023-04-18T18:38:29.437Z,102592.28
2023-04-18T18:40:56.238Z,102579.88
2023-04-18T18:43:26.300Z,102592.59
2023-04-18T18:45:53.111Z,102579.41
2023-04-18T18:48:22.197Z,102587.91
2023-04-18T18:50:51.406Z,102583.22
2023-04-18T18:53:20.358Z,102595.03
2023-04-18T18:55:47.082Z,102590.31
2023-04-18T18:58:16.146Z,102586.63
2023-04-18T19:00:46.885Z,102574.66
2023-04-18T19:03:18.969Z,102575.72
2023-04-18T19:05:46.432Z,102598.13
2023-04-18T19:08:13.926Z,102580.63
2023-04-18T19:10:43.404Z,102598.44
2023-04-18T19:13:12.421Z,102613.81
2023-04-18T19:15:39.129Z,102609.22
2023-04-18T19:18:05.885Z,102611.72
2023-04-18T19:20:38.989Z,102599.59
2023-04-18T19:23:05.730Z,102613.91
2023-04-18T19:25:32.534Z,102607.50
2023-04-18T19:27:59.197Z,102609.78
2023-04-18T19:30:25.822Z,102602.16
2023-04-18T19:32:52.523Z,102630.38
2023-04-18T19:35:19.179Z,102620.50
2023-04-18T19:37:46.473Z,102621.09
2023-04-18T19:40:14.261Z,102624.63
2023-04-18T19:42:41.127Z,102633.09
2023-04-18T19:45:08.546Z,102631.09
2023-04-18T19:47:38.076Z,102623.09
2023-04-18T19:50:05.748Z,102616.69
2023-04-18T19:52:32.346Z,102637.00
2023-04-18T19:54:59.072Z,102628.88
2023-04-18T19:57:26.463Z,102612.16
2023-04-18T19:59:55.703Z,102635.16
2023-04-18T20:02:22.452Z,102635.34
2023-04-18T20:04:49.576Z,102626.66
2023-04-18T20:07:16.405Z,102613.16
2023-04-18T20:09:45.989Z,102619.47
2023-04-18T20:12:14.867Z,102614.16
2023-04-18T20:14:41.888Z,102611.81
2023-04-18T20:17:08.668Z,102626.25
2023-04-18T20:19:35.722Z,102612.28
2023-04-18T20:22:04.646Z,102618.25
2023-04-18T20:24:31.878Z,102617.13
2023-04-18T20:26:59.769Z,102617.81
2023-04-18T20:29:26.613Z,102626.41
2023-04-18T20:31:53.341Z,102609.41
2023-04-18T20:34:20.084Z,102626.75
2023-04-18T20:36:47.050Z,102628.47
2023-04-18T20:39:16.583Z,102618.34
2023-04-18T20:41:48.500Z,102625.53
2023-04-18T20:44:22.074Z,102625.53
2023-04-18T20:46:48.816Z,102621.75
2023-04-18T20:49:15.629Z,102626.94
2023-04-18T20:51:42.453Z,102641.38
2023-04-18T20:54:09.136Z,102640.47
2023-04-18T20:56:38.804Z,102604.69
2023-04-18T20:59:05.460Z,102583.75
2023-04-18T21:01:32.445Z,102628.66
2023-04-18T21:03:59.478Z,102620.25
2023-04-18T21:06:28.433Z,102629.44
2023-04-18T21:08:57.514Z,102655.38
2023-04-18T21:11:24.099Z,102653.59
2023-04-18T21:13:53.151Z,102631.19
2023-04-18T21:16:19.896Z,102630.97
2023-04-18T21:18:46.535Z,102655.75
2023-04-18T21:21:13.227Z,102643.03
2023-04-18T21:23:44.010Z,102648.22
2023-04-18T21:26:12.601Z,102653.72
2023-04-18T21:29:07.218Z,102659.72
2023-04-18T21:31:37.700Z,102651.72
2023-04-18T21:34:05.448Z,102661.09
2023-04-18T21:36:32.438Z,102651.50
2023-04-18T21:39:01.083Z,102636.75
2023-04-18T21:41:28.197Z,102646.31
2023-04-18T21:43:54.968Z,102644.50
2023-04-18T21:46:21.784Z,102615.00
2023-04-18T21:48:48.779Z,102616.00
2023-04-18T21:51:20.195Z,102627.94
2023-04-18T21:53:53.308Z,102636.50
2023-04-18T21:56:22.357Z,102636.50
2023-04-18T21:58:49.336Z,102638.31
2023-04-18T22:01:16.061Z,102639.91
2023-04-18T22:03:42.906Z,102640.00
2023-04-18T22:06:09.887Z,102624.59
2023-04-18T22:08:38.752Z,102638.97
2023-04-18T22:11:05.521Z,102623.78
2023-04-18T22:13:35.756Z,102632.78
2023-04-18T22:16:05.444Z,102625.00
2023-04-18T22:18:37.977Z,102627.50
2023-04-18T22:21:05.173Z,102619.59
2023-04-18T22:23:31.883Z,102623.91
2023-04-18T22:26:01.035Z,102615.13
2023-04-18T22:28:34.106Z,102612.41
2023-04-18T22:31:03.199Z,102611.41
2023-04-18T22:33:30.035Z,102596.19
2023-04-18T22:35:56.656Z,102609.63
2023-04-18T22:38:24.696Z,102611.16
2023-04-18T22:40:51.378Z,102608.38
2023-04-18T22:43:22.832Z,102608.50
2023-04-18T22:45:50.013Z,102613.75
2023-04-18T22:48:19.181Z,102606.91
2023-04-18T22:50:46.361Z,102607.69
2023-04-18T22:53:16.817Z,102601.50
2023-04-18T22:55:44.821Z,102588.09
2023-04-18T22:58:11.737Z,102604.31
2023-04-18T23:00:40.771Z,102564.00
2023-04-18T23:03:07.588Z,102606.91
2023-04-18T23:05:34.774Z,102577.72
2023-04-18T23:08:01.540Z,102597.31
2023-04-18T23:10:28.458Z,102598.19
2023-04-18T23:12:55.195Z,102574.69
2023-04-18T23:15:24.659Z,102576.16
2023-04-18T23:17:52.887Z,102593.03
2023-04-18T23:20:24.137Z,102590.34
2023-04-18T23:22:51.869Z,102583.13
2023-04-18T23:25:19.785Z,102594.72
2023-04-18T23:27:47.322Z,102594.72
2023-04-18T23:30:14.275Z,102592.13
2023-04-18T23:32:40.934Z,102581.53
2023-04-18T23:35:07.942Z,102574.78
2023-04-18T23:37:36.728Z,102581.75
2023-04-18T23:40:06.831Z,102579.16
2023-04-18T23:42:39.043Z,102578.28
2023-04-18T23:45:06.534Z,102579.28
2023-04-18T23:47:33.605Z,102578.16
2023-04-18T23:50:00.512Z,102582.09
2023-04-18T23:52:27.198Z,102573.66
2023-04-18T23:54:53.891Z,102582.28
2023-04-18T23:57:22.903Z,102541.56
2023-04-18T23:59:49.543Z,102561.59
